createdAt,value
2019-04-14T00:00:05.767Z,868.56
2019-04-14T00:01:06.416Z,868.60
2019-04-14T00:02:05.737Z,868.62
2019-04-14T00:03:06.589Z,868.61
2019-04-14T00:04:05.714Z,868.53
2019-04-14T00:05:06.134Z,868.52
2019-04-14T00:06:06.861Z,868.51
2019-04-14T00:07:05.900Z,868.51
2019-04-14T00:08:06.688Z,868.49
2019-04-14T00:09:05.669Z,868.52
2019-04-14T00:10:05.655Z,868.57
2019-04-14T00:11:06.143Z,868.53
2019-04-14T00:12:07.446Z,868.56
2019-04-14T00:13:06.659Z,868.55
2019-04-14T00:14:05.625Z,868.52
2019-04-14T00:15:17.740Z,868.50
2019-04-14T00:16:05.613Z,868.50
2019-04-14T00:17:06.560Z,868.49
2019-04-14T00:18:05.597Z,868.48
2019-04-14T00:19:06.521Z,868.47
2019-04-14T00:20:05.583Z,868.51
2019-04-14T00:21:06.556Z,868.45
2019-04-14T00:22:05.555Z,868.49
2019-04-14T00:23:06.512Z,868.49
2019-04-14T00:24:05.535Z,868.48
2019-04-14T00:25:06.446Z,868.44
2019-04-14T00:26:05.520Z,868.45
2019-04-14T00:27:06.356Z,868.44
2019-04-14T00:28:05.504Z,868.42
2019-04-14T00:29:06.706Z,868.39
2019-04-14T00:30:05.595Z,868.38
2019-04-14T00:31:06.541Z,868.42
2019-04-14T00:32:05.476Z,868.39
2019-04-14T00:33:06.267Z,868.35
2019-04-14T00:34:05.455Z,868.38
2019-04-14T00:35:06.097Z,868.36
2019-04-14T00:36:06.484Z,868.38
2019-04-14T00:37:05.630Z,868.36
2019-04-14T00:38:06.316Z,868.36
2019-04-14T00:39:05.411Z,868.38
2019-04-14T00:40:06.168Z,868.34
2019-04-14T00:41:05.391Z,868.33
2019-04-14T00:42:06.630Z,868.33
2019-04-14T00:43:05.381Z,868.33
2019-04-14T00:44:05.704Z,868.35
2019-04-14T00:45:05.355Z,868.33
2019-04-14T00:46:05.884Z,868.34
2019-04-14T00:47:05.345Z,868.33
2019-04-14T00:48:10.804Z,868.30
2019-04-14T00:49:05.317Z,868.28
2019-04-14T00:50:05.811Z,868.29
2019-04-14T00:51:05.302Z,868.27
2019-04-14T00:52:05.750Z,868.27
2019-04-14T00:53:05.501Z,868.25
2019-04-14T00:54:06.518Z,868.31
2019-04-14T00:55:05.369Z,868.25
2019-04-14T00:56:06.200Z,868.27
2019-04-14T00:57:05.255Z,868.28
2019-04-14T00:58:05.966Z,868.30
2019-04-14T00:59:05.238Z,868.26
2019-04-14T01:00:05.970Z,868.24
2019-04-14T01:01:05.221Z,868.27
2019-04-14T01:02:05.669Z,868.29
2019-04-14T01:03:05.195Z,868.31
2019-04-14T01:04:05.597Z,868.28
2019-04-14T01:05:05.181Z,868.26
2019-04-14T01:06:05.425Z,868.25
2019-04-14T01:07:06.483Z,868.24
2019-04-14T01:08:05.298Z,868.23
2019-04-14T01:09:06.346Z,868.21
2019-04-14T01:10:06.029Z,868.21
2019-04-14T01:11:05.312Z,868.19
2019-04-14T01:12:05.961Z,868.23
2019-04-14T01:13:08.080Z,868.22
2019-04-14T01:14:05.874Z,868.23
2019-04-14T01:15:05.086Z,868.20
2019-04-14T01:16:11.555Z,868.24
2019-04-14T01:17:05.082Z,868.21
2019-04-14T01:18:05.699Z,868.18
2019-04-14T01:19:05.053Z,868.18
2019-04-14T01:20:05.703Z,868.17
2019-04-14T01:21:05.036Z,868.20
2019-04-14T01:22:05.327Z,868.11
2019-04-14T01:23:06.219Z,868.14
2019-04-14T01:24:05.322Z,868.14
2019-04-14T01:25:05.012Z,868.11
2019-04-14T01:26:05.067Z,868.14
2019-04-14T01:27:05.956Z,868.12
2019-04-14T01:28:04.986Z,868.12
2019-04-14T01:29:05.831Z,868.08
2019-04-14T01:30:04.959Z,868.15
2019-04-14T01:31:05.544Z,868.13
2019-04-14T01:32:04.958Z,868.13
2019-04-14T01:33:05.474Z,868.13
2019-04-14T01:34:06.235Z,868.10
2019-04-14T01:35:05.337Z,868.14
2019-04-14T01:36:05.952Z,868.12
2019-04-14T01:37:05.145Z,868.09
2019-04-14T01:38:05.861Z,868.09
2019-04-14T01:39:04.884Z,868.09
2019-04-14T01:40:05.266Z,868.09
2019-04-14T01:41:04.876Z,868.09
2019-04-14T01:42:04.972Z,868.08
2019-04-14T01:43:05.912Z,868.07
2019-04-14T01:44:04.865Z,868.06
2019-04-14T01:45:05.695Z,868.10
2019-04-14T01:46:13.489Z,868.12
2019-04-14T01:47:05.254Z,868.12
2019-04-14T01:48:05.909Z,868.12
2019-04-14T01:49:05.020Z,868.12
2019-04-14T01:50:05.883Z,868.11
2019-04-14T01:51:04.922Z,868.11
2019-04-14T01:52:05.695Z,868.12
2019-04-14T01:53:05.380Z,868.10
2019-04-14T01:54:05.859Z,868.05
2019-04-14T01:55:04.832Z,868.07
2019-04-14T01:56:05.635Z,868.05
2019-04-14T01:57:04.742Z,868.01
2019-04-14T01:58:05.382Z,868.04
2019-04-14T01:59:04.716Z,867.97
2019-04-14T02:00:05.379Z,867.96
2019-04-14T02:01:04.703Z,867.92
2019-04-14T02:02:05.133Z,867.93
2019-04-14T02:03:04.696Z,867.91
2019-04-14T02:04:04.969Z,867.92
2019-04-14T02:05:04.676Z,867.93
2019-04-14T02:06:04.889Z,867.93
2019-04-14T02:07:05.834Z,867.90
2019-04-14T02:08:04.654Z,867.89
2019-04-14T02:09:05.367Z,867.91
2019-04-14T02:10:04.639Z,867.89
2019-04-14T02:11:05.200Z,867.91
2019-04-14T02:12:04.616Z,867.92
2019-04-14T02:13:04.996Z,867.88
2019-04-14T02:14:04.599Z,867.89
2019-04-14T02:15:04.813Z,867.83
2019-04-14T02:16:14.994Z,867.86
2019-04-14T02:17:06.066Z,867.83
2019-04-14T02:18:05.579Z,867.86
2019-04-14T02:19:04.630Z,867.82
2019-04-14T02:20:05.507Z,867.79
2019-04-14T02:21:04.542Z,867.78
2019-04-14T02:22:05.163Z,867.77
2019-04-14T02:23:04.542Z,867.79
2019-04-14T02:24:04.932Z,867.77
2019-04-14T02:25:05.562Z,867.78
2019-04-14T02:26:04.700Z,867.78
2019-04-14T02:27:05.472Z,867.74
2019-04-14T02:28:04.777Z,867.70
2019-04-14T02:29:05.657Z,867.73
2019-04-14T02:30:06.688Z,867.74
2019-04-14T02:31:19.464Z,867.70
2019-04-14T02:32:33.814Z,867.68
2019-04-14T02:33:41.496Z,867.71
2019-04-14T02:35:47.297Z,867.68
2019-04-14T02:36:32.275Z,867.61
2019-04-14T02:38:47.377Z,867.55
2019-04-14T02:40:36.898Z,867.52
2019-04-14T02:42:34.452Z,867.50
2019-04-14T02:44:36.429Z,867.47
2019-04-14T02:45:35.494Z,867.45
2019-04-14T02:50:24.349Z,867.32
2019-04-14T02:51:33.714Z,867.31
2019-04-14T02:52:34.903Z,867.32
2019-04-14T02:53:34.396Z,867.27
2019-04-14T02:54:36.673Z,867.24
2019-04-14T02:55:38.372Z,867.25
2019-04-14T02:56:34.325Z,867.20
2019-04-14T02:57:30.519Z,867.27
2019-04-14T02:58:40.416Z,867.25
2019-04-14T02:59:30.402Z,867.20
2019-04-14T03:00:36.551Z,867.21
2019-04-14T03:03:35.883Z,867.16
2019-04-14T03:04:26.115Z,867.20
2019-04-14T03:05:26.714Z,867.13
2019-04-14T03:06:26.058Z,867.09
2019-04-14T03:07:34.178Z,867.10
2019-04-14T03:08:34.483Z,867.08
2019-04-14T03:09:36.366Z,867.06
2019-04-14T03:10:33.922Z,867.04
2019-04-14T03:11:32.614Z,867.05
2019-04-14T03:13:28.698Z,867.02
2019-04-14T03:14:36.864Z,867.06
2019-04-14T03:15:35.155Z,867.01
2019-04-14T03:16:37.564Z,867.01
2019-04-14T03:17:33.345Z,866.96
2019-04-14T03:19:35.549Z,866.93
2019-04-14T03:20:39.556Z,866.94
2019-04-14T03:21:54.744Z,866.91
2019-04-14T03:22:43.886Z,866.92
2019-04-14T03:23:34.825Z,866.88
2019-04-14T03:24:29.160Z,866.88
2019-04-14T03:25:22.575Z,866.88
2019-04-14T03:26:27.105Z,866.88
2019-04-14T03:27:33.040Z,866.88
2019-04-14T03:28:34.231Z,866.84
2019-04-14T03:29:26.890Z,866.81
2019-04-14T03:31:50.935Z,866.74
2019-04-14T03:34:50.027Z,866.70
2019-04-14T03:39:36.945Z,866.51
2019-04-14T03:40:34.374Z,866.49
2019-04-14T03:42:35.571Z,866.45
2019-04-14T03:43:30.282Z,866.49
2019-04-14T03:45:35.747Z,866.35
2019-04-14T03:47:25.792Z,866.32
2019-04-14T03:49:32.264Z,866.30
2019-04-14T03:50:32.848Z,866.26
2019-04-14T03:52:31.615Z,866.20
2019-04-14T03:53:26.272Z,866.23
2019-04-14T03:54:20.215Z,866.14
2019-04-14T03:55:15.991Z,866.19
2019-04-14T03:56:07.319Z,866.14
2019-04-14T03:57:04.042Z,866.17
2019-04-14T03:58:03.905Z,866.18
2019-04-14T03:59:04.205Z,866.11
2019-04-14T04:00:03.740Z,866.15
2019-04-14T04:01:04.002Z,866.12
2019-04-14T04:02:03.723Z,866.10
2019-04-14T04:03:04.133Z,866.08
2019-04-14T04:04:03.736Z,866.07
2019-04-14T04:05:04.206Z,866.04
2019-04-14T04:06:03.706Z,866.02
2019-04-14T04:07:03.870Z,866.06
2019-04-14T04:08:04.984Z,866.03
2019-04-14T04:09:03.979Z,866.01
2019-04-14T04:10:04.826Z,866.01
2019-04-14T04:11:04.039Z,866.04
2019-04-14T04:12:03.637Z,865.98
2019-04-14T04:13:04.078Z,865.94
2019-04-14T04:14:03.624Z,865.92
2019-04-14T04:15:03.970Z,866.02
2019-04-14T04:16:03.599Z,865.95
2019-04-14T04:17:03.670Z,865.91
2019-04-14T04:18:04.779Z,865.93
2019-04-14T04:19:08.738Z,865.88
2019-04-14T04:20:04.543Z,865.76
2019-04-14T04:21:03.562Z,865.72
2019-04-14T04:22:04.231Z,865.81
2019-04-14T04:23:03.542Z,865.78
2019-04-14T04:24:04.304Z,865.79
2019-04-14T04:25:03.534Z,865.70
2019-04-14T04:26:04.026Z,865.65
2019-04-14T04:27:04.596Z,865.72
2019-04-14T04:28:03.811Z,865.67
2019-04-14T04:29:04.737Z,865.62
2019-04-14T04:30:03.759Z,865.59
2019-04-14T04:31:04.495Z,865.64
2019-04-14T04:32:03.556Z,865.56
2019-04-14T04:33:04.434Z,865.62
2019-04-14T04:34:03.447Z,865.50
2019-04-14T04:35:04.320Z,865.59
2019-04-14T04:36:03.432Z,865.56
2019-04-14T04:37:03.928Z,865.62
2019-04-14T04:38:03.420Z,865.51
2019-04-14T04:39:03.959Z,865.59
2019-04-14T04:40:03.403Z,865.54
2019-04-14T04:41:03.745Z,865.47
2019-04-14T04:42:04.723Z,865.50
2019-04-14T04:43:03.803Z,865.62
2019-04-14T04:44:03.368Z,865.46
2019-04-14T04:45:03.934Z,865.50
2019-04-14T04:46:03.346Z,865.46
2019-04-14T04:47:03.527Z,865.43
2019-04-14T04:48:04.453Z,865.35
2019-04-14T04:49:11.663Z,865.35
2019-04-14T04:50:04.286Z,865.34
2019-04-14T04:51:03.302Z,865.30
2019-04-14T04:52:04.117Z,865.21
2019-04-14T04:53:03.291Z,865.25
2019-04-14T04:54:03.876Z,865.20
2019-04-14T04:55:04.516Z,865.21
2019-04-14T04:56:03.615Z,865.16
2019-04-14T04:57:04.498Z,865.17
2019-04-14T04:58:03.427Z,865.21
2019-04-14T04:59:03.354Z,865.21
2019-04-14T05:00:03.217Z,865.18
2019-04-14T05:01:03.506Z,865.12
2019-04-14T05:02:03.202Z,865.09
2019-04-14T05:03:03.688Z,865.09
2019-04-14T05:04:03.200Z,865.12
2019-04-14T05:05:03.508Z,865.02
2019-04-14T05:06:03.176Z,865.12
2019-04-14T05:07:03.522Z,865.05
2019-04-14T05:08:04.218Z,865.06
2019-04-14T05:09:03.404Z,865.07
2019-04-14T05:10:04.555Z,865.06
2019-04-14T05:11:03.269Z,865.00
2019-04-14T05:12:03.113Z,864.97
2019-04-14T05:13:03.113Z,864.97
2019-04-14T05:14:04.302Z,865.04
2019-04-14T05:15:03.538Z,864.96
2019-04-14T05:16:04.090Z,864.96
2019-04-14T05:17:03.668Z,864.92
2019-04-14T05:18:03.061Z,864.94
2019-04-14T05:19:14.011Z,864.85
2019-04-14T05:20:03.249Z,864.93
2019-04-14T05:21:03.958Z,864.88
2019-04-14T05:22:03.028Z,864.77
2019-04-14T05:23:03.726Z,864.73
2019-04-14T05:24:03.009Z,864.82
2019-04-14T05:25:03.610Z,864.78
2019-04-14T05:26:02.984Z,864.78
2019-04-14T05:27:03.635Z,864.73
2019-04-14T05:28:02.975Z,864.68
2019-04-14T05:29:03.605Z,864.65
2019-04-14T05:30:02.960Z,864.68
2019-04-14T05:31:03.346Z,864.69
2019-04-14T05:32:02.941Z,864.63
2019-04-14T05:33:03.049Z,864.68
2019-04-14T05:34:02.922Z,864.76
2019-04-14T05:35:03.136Z,864.65
2019-04-14T05:36:04.108Z,864.71
2019-04-14T05:37:03.346Z,864.71
2019-04-14T05:38:03.845Z,864.64
2019-04-14T05:39:02.883Z,864.67
2019-04-14T05:40:03.772Z,864.71
2019-04-14T05:41:02.856Z,864.68
2019-04-14T05:42:09.455Z,864.62
2019-04-14T05:43:02.832Z,864.60
2019-04-14T05:44:03.565Z,864.56
2019-04-14T05:45:02.806Z,864.55
2019-04-14T05:46:03.487Z,864.55
2019-04-14T05:47:02.797Z,864.46
2019-04-14T05:48:03.258Z,864.41
2019-04-14T05:49:02.783Z,864.46
2019-04-14T05:50:03.192Z,864.50
2019-04-14T05:51:02.768Z,864.50
2019-04-14T05:52:03.422Z,864.50
2019-04-14T05:53:02.733Z,864.45
2019-04-14T05:54:03.436Z,864.37
2019-04-14T05:55:02.737Z,864.35
2019-04-14T05:56:03.567Z,864.31
2019-04-14T05:57:02.703Z,864.35
2019-04-14T05:58:03.596Z,864.33
2019-04-14T05:59:02.686Z,864.18
2019-04-14T06:00:03.725Z,864.25
2019-04-14T06:01:02.674Z,864.28
2019-04-14T06:02:02.695Z,864.26
2019-04-14T06:03:03.728Z,864.32
2019-04-14T06:04:02.637Z,864.31
2019-04-14T06:05:03.616Z,864.27
2019-04-14T06:06:02.629Z,864.25
2019-04-14T06:07:02.621Z,864.34
2019-04-14T06:08:02.599Z,864.20
2019-04-14T06:09:02.591Z,864.13
2019-04-14T06:10:02.578Z,864.15
2019-04-14T06:11:02.575Z,864.18
2019-04-14T06:12:02.562Z,864.21
2019-04-14T06:13:02.561Z,864.15
2019-04-14T06:14:02.545Z,864.20
2019-04-14T06:15:02.538Z,864.16
2019-04-14T06:16:02.528Z,864.22
2019-04-14T06:17:02.512Z,864.20
2019-04-14T06:18:02.513Z,864.22
2019-04-14T06:19:02.508Z,864.20
2019-04-14T06:20:02.508Z,864.10
2019-04-14T06:21:02.487Z,864.00
2019-04-14T06:22:02.470Z,864.05
2019-04-14T06:23:02.461Z,864.03
2019-04-14T06:24:02.450Z,864.04
2019-04-14T06:25:02.441Z,864.04
2019-04-14T06:26:02.446Z,864.02
2019-04-14T06:27:02.887Z,864.10
2019-04-14T06:28:02.422Z,863.99
2019-04-14T06:29:02.413Z,864.01
2019-04-14T06:30:02.415Z,863.92
2019-04-14T06:31:02.407Z,863.90
2019-04-14T06:32:02.397Z,863.87
2019-04-14T06:33:02.369Z,863.91
2019-04-14T06:34:02.365Z,863.84
2019-04-14T06:35:02.356Z,863.76
2019-04-14T06:36:02.343Z,863.78
2019-04-14T06:37:02.341Z,863.79
2019-04-14T06:38:02.321Z,863.75
2019-04-14T06:39:02.325Z,863.82
2019-04-14T06:40:02.304Z,863.82
2019-04-14T06:41:02.302Z,863.86
2019-04-14T06:42:02.305Z,863.87
2019-04-14T06:43:02.280Z,863.79
2019-04-14T06:44:02.270Z,863.83
2019-04-14T06:45:02.263Z,863.74
2019-04-14T06:46:02.260Z,863.69
2019-04-14T06:47:02.289Z,863.70
2019-04-14T06:48:02.264Z,863.70
2019-04-14T06:49:02.235Z,863.75
2019-04-14T06:50:02.219Z,863.74
2019-04-14T06:51:02.217Z,863.68
2019-04-14T06:52:02.227Z,863.71
2019-04-14T06:53:02.193Z,863.73
2019-04-14T06:54:02.183Z,863.73
2019-04-14T06:55:02.175Z,863.74
2019-04-14T06:56:02.905Z,863.70
2019-04-14T06:57:02.160Z,863.72
2019-04-14T06:58:02.139Z,863.70
2019-04-14T06:59:02.151Z,863.70
2019-04-14T07:00:02.133Z,863.66
2019-04-14T07:01:02.159Z,863.65
2019-04-14T07:02:02.148Z,863.65
2019-04-14T07:03:02.096Z,863.60
2019-04-14T07:04:02.106Z,863.63
2019-04-14T07:05:02.072Z,863.62
2019-04-14T07:06:02.070Z,863.60
2019-04-14T07:07:02.061Z,863.61
2019-04-14T07:08:02.058Z,863.59
2019-04-14T07:09:02.045Z,863.55
2019-04-14T07:10:02.073Z,863.58
2019-04-14T07:11:02.030Z,863.55
2019-04-14T07:12:02.097Z,863.47
2019-04-14T07:13:02.009Z,863.46
2019-04-14T07:14:02.012Z,863.31
2019-04-14T07:15:02.002Z,863.52
2019-04-14T07:16:02.001Z,863.50
2019-04-14T07:17:01.975Z,863.47
2019-04-14T07:18:02.066Z,863.47
2019-04-14T07:19:01.963Z,863.44
2019-04-14T07:20:02.654Z,863.36
2019-04-14T07:21:01.942Z,863.45
2019-04-14T07:22:01.926Z,863.36
2019-04-14T07:23:01.912Z,863.31
2019-04-14T07:24:01.910Z,863.31
2019-04-14T07:25:01.919Z,863.24
2019-04-14T07:26:01.902Z,863.20
2019-04-14T07:27:01.877Z,863.31
2019-04-14T07:28:01.874Z,863.22
2019-04-14T07:29:01.855Z,863.27
2019-04-14T07:30:01.854Z,863.27
2019-04-14T07:31:01.842Z,863.21
2019-04-14T07:32:01.837Z,863.15
2019-04-14T07:33:01.827Z,863.08
2019-04-14T07:34:01.845Z,863.15
2019-04-14T07:35:01.849Z,863.11
2019-04-14T07:36:01.799Z,863.07
2019-04-14T07:37:01.782Z,863.06
2019-04-14T07:38:01.795Z,863.00
2019-04-14T07:39:01.768Z,862.98
2019-04-14T07:40:01.760Z,863.02
2019-04-14T07:41:01.763Z,862.95
2019-04-14T07:42:01.746Z,862.98
2019-04-14T07:43:01.735Z,862.97
2019-04-14T07:44:01.726Z,863.01
2019-04-14T07:45:01.717Z,862.88
2019-04-14T07:46:01.783Z,862.87
2019-04-14T07:47:01.700Z,862.91
2019-04-14T07:48:01.687Z,862.98
2019-04-14T07:49:01.683Z,863.03
2019-04-14T07:50:13.694Z,863.00
2019-04-14T07:51:01.655Z,862.97
2019-04-14T07:52:01.643Z,862.95
2019-04-14T07:53:01.632Z,862.98
2019-04-14T07:54:01.631Z,862.93
2019-04-14T07:55:01.620Z,862.98
2019-04-14T07:56:01.617Z,862.92
2019-04-14T07:57:01.601Z,862.93
2019-04-14T07:58:01.613Z,862.90
2019-04-14T07:59:01.581Z,862.89
2019-04-14T08:00:01.592Z,862.86
2019-04-14T08:01:01.568Z,862.85
2019-04-14T08:02:01.563Z,862.91
2019-04-14T08:03:01.551Z,862.90
2019-04-14T08:04:01.542Z,862.92
2019-04-14T08:05:01.535Z,862.72
2019-04-14T08:06:01.524Z,862.71
2019-04-14T08:07:01.514Z,862.74
2019-04-14T08:08:01.500Z,862.78
2019-04-14T08:09:01.502Z,862.65
2019-04-14T08:10:01.488Z,862.79
2019-04-14T08:11:01.472Z,862.73
2019-04-14T08:12:01.475Z,862.76
2019-04-14T08:13:01.463Z,862.69
2019-04-14T08:14:01.453Z,862.66
2019-04-14T08:15:01.439Z,862.66
2019-04-14T08:16:01.441Z,862.66
2019-04-14T08:17:01.425Z,862.76
2019-04-14T08:18:01.414Z,862.73
2019-04-14T08:19:01.401Z,862.72
2019-04-14T08:20:01.395Z,862.73
2019-04-14T08:21:01.390Z,862.73
2019-04-14T08:22:01.371Z,862.67
2019-04-14T08:23:01.365Z,862.66
2019-04-14T08:24:01.354Z,862.70
2019-04-14T08:25:01.349Z,862.68
2019-04-14T08:26:01.348Z,862.65
2019-04-14T08:27:01.325Z,862.63
2019-04-14T08:28:01.317Z,862.65
2019-04-14T08:29:01.304Z,862.68
2019-04-14T08:30:01.314Z,862.58
2019-04-14T08:31:01.301Z,862.58
2019-04-14T08:32:01.282Z,862.59
2019-04-14T08:33:01.271Z,862.63
2019-04-14T08:34:01.273Z,862.69
2019-04-14T08:35:01.264Z,862.65
2019-04-14T08:36:01.250Z,862.64
2019-04-14T08:37:01.244Z,862.61
2019-04-14T08:38:01.236Z,862.67
2019-04-14T08:39:01.225Z,862.60
2019-04-14T08:40:01.222Z,862.67
2019-04-14T08:41:01.208Z,862.68
2019-04-14T08:42:01.524Z,862.67
2019-04-14T08:43:01.188Z,862.71
2019-04-14T08:44:01.177Z,862.66
2019-04-14T08:45:01.167Z,862.63
2019-04-14T08:46:01.161Z,862.73
2019-04-14T08:47:01.150Z,862.68
2019-04-14T08:48:01.148Z,862.69
2019-04-14T08:49:01.130Z,862.66
2019-04-14T08:50:01.123Z,862.63
2019-04-14T08:51:01.115Z,862.64
2019-04-14T08:52:01.109Z,862.61
2019-04-14T08:53:01.095Z,862.71
2019-04-14T08:54:01.090Z,862.63
2019-04-14T08:55:01.077Z,862.74
2019-04-14T08:56:01.063Z,862.68
2019-04-14T08:57:01.052Z,862.69
2019-04-14T08:58:01.042Z,862.61
2019-04-14T08:59:01.042Z,862.61
2019-04-14T09:00:01.029Z,862.66
2019-04-14T09:01:01.031Z,862.61
2019-04-14T09:02:01.010Z,862.61
2019-04-14T09:03:01.004Z,862.62
2019-04-14T09:04:00.990Z,862.59
2019-04-14T09:05:00.985Z,862.62
2019-04-14T09:06:00.972Z,862.59
2019-04-14T09:07:00.962Z,862.56
2019-04-14T09:08:00.951Z,862.54
2019-04-14T09:09:01.625Z,862.51
2019-04-14T09:10:00.932Z,862.34
2019-04-14T09:11:00.943Z,862.63
2019-04-14T09:12:00.932Z,862.60
2019-04-14T09:13:00.902Z,862.57
2019-04-14T09:14:00.891Z,862.61
2019-04-14T09:15:00.921Z,862.57
2019-04-14T09:16:00.876Z,862.62
2019-04-14T09:17:00.885Z,862.59
2019-04-14T09:18:01.396Z,862.58
2019-04-14T09:19:07.382Z,862.60
2019-04-14T09:20:00.851Z,862.54
2019-04-14T09:21:00.839Z,862.52
2019-04-14T09:22:00.825Z,862.56
2019-04-14T09:23:00.820Z,862.51
2019-04-14T09:24:00.924Z,862.53
2019-04-14T09:25:00.807Z,862.56
2019-04-14T09:26:00.785Z,862.56
2019-04-14T09:27:00.785Z,862.52
2019-04-14T09:28:00.771Z,862.55
2019-04-14T09:29:00.767Z,862.56
2019-04-14T09:30:00.750Z,862.55
2019-04-14T09:31:00.744Z,862.55
2019-04-14T09:32:00.735Z,862.53
2019-04-14T09:33:00.727Z,862.59
2019-04-14T09:34:00.738Z,862.56
2019-04-14T09:35:00.736Z,862.56
2019-04-14T09:36:00.695Z,862.53
2019-04-14T09:37:00.683Z,862.53
2019-04-14T09:38:00.686Z,862.52
2019-04-14T09:39:00.667Z,862.49
2019-04-14T09:40:00.660Z,862.52
2019-04-14T09:41:00.652Z,862.49
2019-04-14T09:42:00.646Z,862.56
2019-04-14T09:43:00.677Z,862.49
2019-04-14T09:44:00.625Z,862.45
2019-04-14T09:45:00.608Z,862.55
2019-04-14T09:46:00.606Z,862.49
2019-04-14T09:47:00.596Z,862.51
2019-04-14T09:48:00.585Z,862.46
2019-04-14T09:49:00.575Z,862.47
2019-04-14T09:50:00.563Z,862.44
2019-04-14T09:51:05.035Z,862.43
2019-04-14T09:52:00.555Z,862.45
2019-04-14T09:53:00.542Z,862.42
2019-04-14T09:54:00.532Z,862.38
2019-04-14T09:55:00.533Z,862.39
2019-04-14T09:56:00.512Z,862.36
2019-04-14T09:57:00.501Z,862.39
2019-04-14T09:58:00.495Z,862.39
2019-04-14T09:59:00.488Z,862.32
2019-04-14T10:00:00.473Z,862.33
2019-04-14T10:01:00.467Z,862.32
2019-04-14T10:02:00.458Z,862.35
2019-04-14T10:03:00.446Z,862.37
2019-04-14T10:04:00.443Z,862.37
2019-04-14T10:05:00.429Z,862.33
2019-04-14T10:06:00.428Z,862.28
2019-04-14T10:07:00.409Z,862.30
2019-04-14T10:08:00.402Z,862.32
2019-04-14T10:09:00.387Z,862.36
2019-04-14T10:10:00.379Z,862.38
2019-04-14T10:11:00.382Z,862.33
2019-04-14T10:12:00.368Z,862.33
2019-04-14T10:13:00.361Z,862.37
2019-04-14T10:14:00.344Z,862.30
2019-04-14T10:15:00.334Z,862.34
2019-04-14T10:16:00.336Z,862.32
2019-04-14T10:17:01.541Z,862.34
2019-04-14T10:18:00.318Z,862.38
2019-04-14T10:19:00.323Z,862.38
2019-04-14T10:20:00.294Z,862.33
2019-04-14T10:21:00.285Z,862.31
2019-04-14T10:22:00.273Z,862.28
2019-04-14T10:23:00.259Z,862.29
2019-04-14T10:24:00.254Z,862.26
2019-04-14T10:25:00.244Z,862.27
2019-04-14T10:26:00.248Z,862.28
2019-04-14T10:27:00.227Z,862.27
2019-04-14T10:28:00.213Z,862.26
2019-04-14T10:29:00.205Z,862.24
2019-04-14T10:30:00.205Z,862.24
2019-04-14T10:31:00.192Z,862.23
2019-04-14T10:32:00.180Z,862.21
2019-04-14T10:33:00.174Z,862.24
2019-04-14T10:34:00.162Z,862.15
2019-04-14T10:35:00.153Z,862.22
2019-04-14T10:36:00.164Z,862.28
2019-04-14T10:37:00.132Z,862.21
2019-04-14T10:38:00.122Z,862.25
2019-04-14T10:39:00.115Z,862.18
2019-04-14T10:40:00.136Z,862.22
2019-04-14T10:41:00.089Z,862.18
2019-04-14T10:42:00.085Z,862.22
2019-04-14T10:43:00.080Z,862.19
2019-04-14T10:44:00.065Z,862.22
2019-04-14T10:45:00.064Z,862.22
2019-04-14T10:46:00.051Z,862.14
2019-04-14T10:47:00.036Z,862.20
2019-04-14T10:48:00.037Z,862.17
2019-04-14T10:49:00.019Z,862.17
2019-04-14T10:50:00.019Z,862.16
2019-04-14T10:51:00.008Z,862.14
2019-04-14T10:52:00.014Z,862.15
2019-04-14T10:52:59.989Z,862.15
2019-04-14T10:53:59.987Z,862.13
2019-04-14T10:54:59.975Z,862.14
2019-04-14T10:56:00.000Z,862.16
2019-04-14T10:57:01.200Z,862.14
2019-04-14T10:57:59.953Z,862.14
2019-04-14T10:58:59.934Z,862.13
2019-04-14T10:59:59.922Z,862.13
2019-04-14T11:00:59.911Z,862.11
2019-04-14T11:01:59.959Z,862.15
2019-04-14T11:02:59.893Z,862.16
2019-04-14T11:03:59.895Z,862.19
2019-04-14T11:04:59.872Z,862.08
2019-04-14T11:05:59.864Z,862.10
2019-04-14T11:06:59.855Z,862.12
2019-04-14T11:07:59.861Z,862.16
2019-04-14T11:08:59.831Z,862.15
2019-04-14T11:09:59.825Z,862.09
2019-04-14T11:10:59.819Z,862.10
2019-04-14T11:11:59.818Z,862.11
2019-04-14T11:12:59.807Z,862.16
2019-04-14T11:13:59.790Z,862.11
2019-04-14T11:14:59.773Z,862.12
2019-04-14T11:15:59.790Z,862.11
2019-04-14T11:16:59.769Z,862.12
2019-04-14T11:17:59.757Z,862.13
2019-04-14T11:18:59.751Z,862.13
2019-04-14T11:19:59.745Z,862.15
2019-04-14T11:20:59.719Z,862.13
2019-04-14T11:21:59.721Z,862.13
2019-04-14T11:23:03.455Z,862.15
2019-04-14T11:23:59.697Z,862.14
2019-04-14T11:24:59.684Z,862.13
2019-04-14T11:25:59.680Z,862.12
2019-04-14T11:26:59.676Z,862.13
2019-04-14T11:27:59.668Z,862.15
2019-04-14T11:28:59.660Z,862.16
2019-04-14T11:29:59.650Z,862.14
2019-04-14T11:30:59.629Z,862.13
2019-04-14T11:31:59.625Z,862.12
2019-04-14T11:32:59.615Z,862.16
2019-04-14T11:33:59.637Z,862.14
2019-04-14T11:34:59.684Z,862.19
2019-04-14T11:35:59.586Z,862.15
2019-04-14T11:36:59.569Z,862.17
2019-04-14T11:37:59.568Z,862.17
2019-04-14T11:38:59.559Z,862.15
2019-04-14T11:39:59.548Z,862.14
2019-04-14T11:40:59.543Z,862.14
2019-04-14T11:41:59.538Z,862.16
2019-04-14T11:42:59.523Z,862.16
2019-04-14T11:43:59.513Z,862.15
2019-04-14T11:44:59.513Z,862.13
2019-04-14T11:45:59.496Z,862.14
2019-04-14T11:46:59.482Z,862.17
2019-04-14T11:47:59.492Z,862.18
2019-04-14T11:48:59.481Z,862.16
2019-04-14T11:49:59.460Z,862.19
2019-04-14T11:50:59.445Z,862.23
2019-04-14T11:51:59.439Z,862.20
2019-04-14T11:52:59.427Z,862.21
2019-04-14T11:53:59.425Z,862.23
2019-04-14T11:54:59.413Z,862.22
2019-04-14T11:55:59.398Z,862.24
2019-04-14T11:56:59.392Z,862.27
2019-04-14T11:57:59.379Z,862.26
2019-04-14T11:58:59.381Z,862.24
2019-04-14T11:59:59.358Z,862.27
2019-04-14T12:00:59.369Z,862.26
2019-04-14T12:01:59.348Z,862.31
2019-04-14T12:02:59.348Z,862.31
2019-04-14T12:03:59.329Z,862.27
2019-04-14T12:04:59.317Z,862.27
2019-04-14T12:05:59.311Z,862.31
2019-04-14T12:06:59.290Z,862.30
2019-04-14T12:07:59.295Z,862.32
2019-04-14T12:08:59.282Z,862.30
2019-04-14T12:09:59.276Z,862.33
2019-04-14T12:10:59.255Z,862.31
2019-04-14T12:11:59.258Z,862.28
2019-04-14T12:12:59.284Z,862.31
2019-04-14T12:13:59.241Z,862.31
2019-04-14T12:14:59.223Z,862.34
2019-04-14T12:15:59.214Z,862.31
2019-04-14T12:16:59.202Z,862.31
2019-04-14T12:17:59.195Z,862.32
2019-04-14T12:18:59.190Z,862.34
2019-04-14T12:19:59.189Z,862.35
2019-04-14T12:20:59.179Z,862.35
2019-04-14T12:22:08.090Z,862.36
2019-04-14T12:22:59.153Z,862.34
2019-04-14T12:23:59.140Z,862.34
2019-04-14T12:24:59.134Z,862.34
2019-04-14T12:26:05.297Z,862.36
2019-04-14T12:26:59.112Z,862.35
2019-04-14T12:28:00.130Z,862.39
2019-04-14T12:29:01.609Z,862.36
2019-04-14T12:29:59.102Z,862.41
2019-04-14T12:30:59.782Z,862.41
2019-04-14T12:31:59.602Z,862.38
2019-04-14T12:32:59.050Z,862.43
2019-04-14T12:33:59.046Z,862.42
2019-04-14T12:34:59.045Z,862.42
2019-04-14T12:35:59.032Z,862.42
2019-04-14T12:36:59.015Z,862.41
2019-04-14T12:37:59.009Z,862.41
2019-04-14T12:38:59.004Z,862.42
2019-04-14T12:39:58.988Z,862.42
2019-04-14T12:41:00.585Z,862.44
2019-04-14T12:41:58.967Z,862.41
2019-04-14T12:42:58.960Z,862.42
2019-04-14T12:43:58.958Z,862.45
2019-04-14T12:44:58.941Z,862.42
2019-04-14T12:45:58.944Z,862.42
2019-04-14T12:46:58.923Z,862.47
2019-04-14T12:47:58.916Z,862.45
2019-04-14T12:48:58.911Z,862.46
2019-04-14T12:49:58.896Z,862.46
2019-04-14T12:50:58.894Z,862.46
2019-04-14T12:51:58.874Z,862.48
2019-04-14T12:52:58.870Z,862.47